Oudewater, Netherlands
Current Conditions -  °F | °C
As of 12:25 PM on Saturday 25 Oct 2014 (Local Time) from EHRD Reporting Station
Overcast Overcast  
Wind Chill: 59°   Ceiling: 3500
Heat Index: 59°   Visibility: 6mi
Dew Point: 52°   Wind: 5mph
Humidity: 77%   Direction: 250°WSW
Pressure: 30.06"   Gusts: NA
Location:  52.03°N, 4.87°E
Report Text: EHRD 251025Z AUTO 25004KT 9999 SCT031 OVC035 15/11 Q1018 NOSIG
Loading
Personal Weather Stations






























Interactive Weather Map
Tropical Storm Tracking
New forecast layout! Learn more

10-Day Weather Forecast

Advertisements
Track Severe Weather on mobile